Time;durP1;ratioP1;P1;durP2;ratioP2;P2;SDS_P1;SDS_P2;PMS_P1;PMS_P2;Temp;Humidity;BMP_temperature;BMP_pressure;BME280_temperature;BME280_humidity;BME280_pressure;Samples;Min_cycle;Max_cycle;Signal;HPM_P1;HPM_P2
2022/05/28 00:01:42;;;;;;;5.75;1.70;;;11.10;99.90;;;;;;5035399;28;20452;-77
2022/05/28 00:04:09;;;;;;;14.00;2.20;;;11.20;99.90;;;;;;5034823;28;20095;-77
2022/05/28 00:06:37;;;;;;;7.22;1.75;;;11.20;99.90;;;;;;5017476;28;20091;-77
2022/05/28 00:09:04;;;;;;;9.63;2.25;;;11.40;99.90;;;;;;5035004;28;20085;-75
2022/05/28 00:11:34;;;;;;;8.57;2.67;;;11.10;99.90;;;;;;5016924;28;20107;-77
2022/05/28 00:14:01;;;;;;;7.90;2.00;;;11.00;99.90;;;;;;5017412;28;20045;-80
2022/05/28 00:16:28;;;;;;;8.50;2.22;;;11.00;99.90;;;;;;5017506;28;20054;-78
2022/05/28 00:18:55;;;;;;;10.77;1.63;;;10.90;99.90;;;;;;5034674;28;20045;-75
2022/05/28 00:21:24;;;;;;;9.35;2.38;;;10.80;99.90;;;;;;5034733;28;20048;-76
2022/05/28 00:23:52;;;;;;;9.57;1.85;;;10.80;99.90;;;;;;5017564;28;20079;-76
2022/05/28 00:26:20;;;;;;;11.77;2.55;;;11.00;99.90;;;;;;5033071;28;20635;-77
2022/05/28 00:28:47;;;;;;;9.48;1.50;;;10.70;99.90;;;;;;5017338;28;20053;-77
2022/05/28 00:31:14;;;;;;;15.45;2.58;;;10.60;99.90;;;;;;5033160;28;20497;-76
2022/05/28 00:33:41;;;;;;;7.35;1.90;;;10.60;99.90;;;;;;5016746;28;20505;-76
2022/05/28 00:36:10;;;;;;;9.02;1.80;;;10.50;99.90;;;;;;5016866;28;20512;-75
2022/05/28 00:38:37;;;;;;;9.18;2.30;;;10.50;99.90;;;;;;5016574;28;20053;-78
2022/05/28 00:41:06;;;;;;;9.13;2.65;;;10.40;99.90;;;;;;5017200;28;20041;-78
2022/05/28 00:43:33;;;;;;;7.82;1.98;;;10.30;99.90;;;;;;5034511;28;20111;-77
2022/05/28 00:46:03;;;;;;;8.15;1.80;;;10.30;99.90;;;;;;5016630;28;20482;-77
2022/05/28 00:48:35;;;;;;;7.18;1.92;;;10.20;99.90;;;;;;5034290;28;20077;-77
2022/05/28 00:51:06;;;;;;;14.75;2.40;;;10.20;99.90;;;;;;5017007;28;20069;-77
2022/05/28 00:53:34;;;;;;;6.45;1.65;;;10.10;99.90;;;;;;5033830;28;20489;-77
2022/05/28 00:56:03;;;;;;;7.63;1.77;;;10.10;99.90;;;;;;5034076;28;20049;-76
2022/05/28 00:58:31;;;;;;;7.32;1.48;;;10.00;99.90;;;;;;5017100;28;20390;-79
2022/05/28 01:00:59;;;;;;;6.70;2.20;;;10.00;99.90;;;;;;5033823;28;20556;-77
2022/05/28 01:03:33;;;;;;;6.85;1.80;;;10.10;99.90;;;;;;5033809;28;20053;-76
2022/05/28 01:06:07;;;;;;;7.07;2.10;;;10.10;99.90;;;;;;5016630;28;20057;-77
2022/05/28 01:08:39;;;;;;;10.43;2.10;;;9.90;99.90;;;;;;5034226;28;20060;-76
2022/05/28 01:11:15;;;;;;;10.48;1.90;;;9.80;99.90;;;;;;5034100;28;20073;-77
2022/05/28 01:13:49;;;;;;;8.55;1.85;;;9.80;99.90;;;;;;5015874;28;20103;-77
2022/05/28 01:16:26;;;;;;;7.88;1.63;;;9.80;99.90;;;;;;5016590;28;20504;-78
2022/05/28 01:18:58;;;;;;;11.20;1.90;;;9.80;99.90;;;;;;5016738;28;20311;-78
2022/05/28 01:21:35;;;;;;;8.55;2.17;;;9.80;99.90;;;;;;5016187;28;20111;-78
2022/05/28 01:24:10;;;;;;;10.23;2.05;;;9.80;99.90;;;;;;5015743;28;20170;-77
2022/05/28 01:26:47;;;;;;;3.35;1.65;;;9.80;99.90;;;;;;5016547;28;20107;-77
2022/05/28 01:29:16;;;;;;;11.57;2.53;;;9.90;99.90;;;;;;5015730;28;20080;-79
2022/05/28 01:31:44;;;;;;;6.95;1.90;;;9.90;99.90;;;;;;5032493;28;20096;-78
2022/05/28 01:34:12;;;;;;;6.80;2.00;;;9.90;99.90;;;;;;5013850;28;20460;-78
2022/05/28 01:36:39;;;;;;;11.88;2.55;;;10.00;99.90;;;;;;5033023;28;20493;-79
2022/05/28 01:39:07;;;;;;;7.65;1.90;;;10.00;99.90;;;;;;5033501;28;20085;-79
2022/05/28 01:41:36;;;;;;;12.70;2.45;;;10.00;99.90;;;;;;5033272;28;20050;-78
2022/05/28 01:44:08;;;;;;;12.48;2.22;;;10.00;99.90;;;;;;5033495;28;20127;-78
2022/05/28 01:46:36;;;;;;;10.82;2.78;;;9.90;99.90;;;;;;5033682;28;20049;-76
2022/05/28 01:49:03;;;;;;;9.52;1.88;;;9.90;99.90;;;;;;5032696;28;20107;-77
2022/05/28 01:51:35;;;;;;;12.65;3.50;;;9.90;99.90;;;;;;5033070;28;20077;-75
2022/05/28 01:54:11;;;;;;;9.40;2.60;;;9.80;99.90;;;;;;4996526;28;20054;-76
2022/05/28 01:56:42;;;;;;;12.13;3.05;;;9.80;99.90;;;;;;5001530;28;20053;-76
2022/05/28 01:59:11;;;;;;;9.30;2.42;;;9.80;99.90;;;;;;5014274;28;20580;-76
2022/05/28 02:01:38;;;;;;;9.45;2.00;;;9.70;99.90;;;;;;5016188;28;20045;-77
2022/05/28 02:04:06;;;;;;;11.07;2.08;;;9.70;99.90;;;;;;5016364;28;20053;-75
2022/05/28 02:06:34;;;;;;;5.78;1.50;;;9.70;99.90;;;;;;5015811;28;20084;-76
2022/05/28 02:09:01;;;;;;;8.95;2.00;;;9.70;99.90;;;;;;5033626;28;20103;-75
2022/05/28 02:11:35;;;;;;;16.92;2.50;;;9.60;99.90;;;;;;5016541;28;20096;-75
2022/05/28 02:14:16;;;;;;;7.82;2.75;;;9.70;99.90;;;;;;5016136;28;20045;-76
2022/05/28 02:16:50;;;;;;;9.82;2.78;;;9.60;99.90;;;;;;5015775;28;20453;-76
2022/05/28 02:19:31;;;;;;;7.72;2.38;;;9.50;99.90;;;;;;5015399;28;20083;-76
2022/05/28 02:22:04;;;;;;;12.63;2.22;;;9.60;99.90;;;;;;5033254;28;20073;-77
2022/05/28 02:24:35;;;;;;;10.73;2.63;;;9.60;99.90;;;;;;5032056;28;20041;-77
2022/05/28 02:27:05;;;;;;;11.82;2.38;;;9.70;99.90;;;;;;5015555;28;20556;-77
2022/05/28 02:29:34;;;;;;;13.40;3.25;;;9.80;99.90;;;;;;5032517;28;20049;-77
2022/05/28 02:32:12;;;;;;;10.55;2.70;;;9.90;99.90;;;;;;5032017;28;20096;-77
2022/05/28 02:34:38;;;;;;;13.23;3.78;;;9.90;99.90;;;;;;5032435;28;20054;-77
2022/05/28 02:37:06;;;;;;;13.30;3.85;;;9.90;99.90;;;;;;5015176;28;20124;-78
2022/05/28 02:39:33;;;;;;;11.10;2.60;;;10.00;99.90;;;;;;5012789;28;20054;-78
2022/05/28 02:42:00;;;;;;;9.50;2.28;;;10.00;99.90;;;;;;5013153;28;20049;-78
2022/05/28 02:44:28;;;;;;;10.70;2.65;;;10.10;99.90;;;;;;5013560;28;20135;-76
2022/05/28 02:46:56;;;;;;;12.85;3.08;;;10.10;99.90;;;;;;5018735;28;20077;-78
2022/05/28 02:49:23;;;;;;;9.63;3.33;;;10.20;99.90;;;;;;5015719;28;20093;-77
2022/05/28 02:51:50;;;;;;;15.77;3.88;;;10.30;99.90;;;;;;5036660;28;20124;-79
2022/05/28 02:54:17;;;;;;;11.38;2.92;;;10.40;99.90;;;;;;5037332;28;20100;-77
2022/05/28 02:56:44;;;;;;;7.03;2.35;;;10.40;99.90;;;;;;5019485;28;20065;-77
2022/05/28 02:59:10;;;;;;;7.88;2.63;;;10.30;99.90;;;;;;5036234;28;20060;-76
2022/05/28 03:01:38;;;;;;;12.82;3.55;;;10.30;99.90;;;;;;5036241;28;20057;-77
2022/05/28 03:04:08;;;;;;;12.45;3.40;;;10.20;99.90;;;;;;5019152;28;20119;-78
2022/05/28 03:06:36;;;;;;;16.55;3.60;;;10.30;99.90;;;;;;5035990;28;20085;-77
2022/05/28 03:09:04;;;;;;;15.23;3.25;;;10.30;99.90;;;;;;5018738;28;20106;-77
2022/05/28 03:11:30;;;;;;;13.18;3.20;;;10.20;99.90;;;;;;5018828;28;20099;-77
2022/05/28 03:13:57;;;;;;;10.07;2.75;;;10.20;99.90;;;;;;5017589;28;20107;-77
2022/05/28 03:16:25;;;;;;;10.73;3.20;;;10.30;99.90;;;;;;5035538;28;20053;-78
2022/05/28 03:18:52;;;;;;;13.32;3.05;;;10.10;99.90;;;;;;5018118;28;20049;-76
2022/05/28 03:21:20;;;;;;;12.05;2.90;;;10.10;99.90;;;;;;5035759;28;20045;-76
2022/05/28 03:23:48;;;;;;;13.18;3.22;;;10.10;99.90;;;;;;5018305;28;20095;-76
2022/05/28 03:26:18;;;;;;;15.20;2.95;;;10.10;99.90;;;;;;5018515;28;20053;-77
2022/05/28 03:28:45;;;;;;;10.70;2.97;;;10.10;99.90;;;;;;5017696;28;20107;-77
2022/05/28 03:31:12;;;;;;;12.13;3.05;;;10.10;99.90;;;;;;5018140;28;20045;-77
2022/05/28 03:33:39;;;;;;;14.93;3.72;;;10.50;99.90;;;;;;5018509;28;20140;-77
2022/05/28 03:36:07;;;;;;;16.08;3.85;;;10.10;99.90;;;;;;5035489;28;20107;-77
2022/05/28 03:38:36;;;;;;;15.32;3.38;;;10.10;99.90;;;;;;5035762;28;20235;-76
2022/05/28 03:41:04;;;;;;;17.10;3.10;;;10.10;99.90;;;;;;5018019;28;20084;-78
2022/05/28 03:43:31;;;;;;;13.05;3.40;;;10.20;99.90;;;;;;5017847;28;20054;-77
2022/05/28 03:45:58;;;;;;;15.90;3.53;;;10.20;99.90;;;;;;5035722;28;20057;-78
2022/05/28 03:48:26;;;;;;;9.95;3.60;;;10.20;99.90;;;;;;5017026;28;20088;-77
2022/05/28 03:50:53;;;;;;;14.45;3.15;;;10.10;99.90;;;;;;5017724;28;20077;-79
2022/05/28 03:53:20;;;;;;;15.45;3.10;;;10.20;99.90;;;;;;5035824;28;20050;-78
2022/05/28 03:55:48;;;;;;;13.60;3.25;;;10.00;99.90;;;;;;5017835;28;20133;-78
2022/05/28 03:58:16;;;;;;;11.50;3.33;;;10.00;99.90;;;;;;5035195;28;20049;-78
2022/05/28 04:00:43;;;;;;;10.95;2.58;;;9.90;99.90;;;;;;5018056;28;20085;-78
2022/05/28 04:03:10;;;;;;;9.48;2.58;;;9.90;99.90;;;;;;5034704;28;20084;-78
2022/05/28 04:05:38;;;;;;;13.00;3.28;;;9.80;99.90;;;;;;5035692;28;20053;-77
2022/05/28 04:08:06;;;;;;;10.35;2.70;;;9.80;99.90;;;;;;5017977;28;20053;-76
2022/05/28 04:10:33;;;;;;;13.23;3.08;;;9.80;99.90;;;;;;5017376;28;20057;-76
2022/05/28 04:13:01;;;;;;;11.50;3.00;;;9.70;99.90;;;;;;5035182;28;20096;-78
2022/05/28 04:15:28;;;;;;;11.07;3.60;;;9.70;99.90;;;;;;5017610;28;20042;-78
2022/05/28 04:17:55;;;;;;;11.35;3.38;;;9.80;99.90;;;;;;5016867;28;20132;-78
2022/05/28 04:20:23;;;;;;;7.35;2.47;;;9.80;99.90;;;;;;5034732;28;20084;-78
2022/05/28 04:22:49;;;;;;;10.80;3.33;;;9.90;99.90;;;;;;5033888;28;20405;-79
2022/05/28 04:25:16;;;;;;;13.48;3.10;;;10.00;99.90;;;;;;5033437;28;20053;-77
2022/05/28 04:27:44;;;;;;;10.18;2.90;;;10.10;99.90;;;;;;5035249;28;20045;-79
2022/05/28 04:30:13;;;;;;;10.77;2.90;;;10.20;99.90;;;;;;5016939;28;20513;-78
2022/05/28 04:32:40;;;;;;;11.77;2.83;;;9.20;99.90;;;;;;5034778;28;20490;-78
2022/05/28 04:35:08;;;;;;;12.32;2.90;;;10.30;99.90;;;;;;5035498;28;20103;-78
2022/05/28 04:37:35;;;;;;;11.52;3.05;;;10.70;99.90;;;;;;5034575;28;20119;-78
2022/05/28 04:40:02;;;;;;;11.20;2.80;;;10.60;99.90;;;;;;5017281;28;20111;-76
2022/05/28 04:42:29;;;;;;;11.57;3.28;;;10.70;99.90;;;;;;5017057;28;20041;-76
2022/05/28 04:44:56;;;;;;;9.85;2.50;;;10.80;99.90;;;;;;5016359;28;20080;-76
2022/05/28 04:47:25;;;;;;;10.00;2.85;;;10.90;99.90;;;;;;5017216;28;20049;-77
2022/05/28 04:49:52;;;;;;;11.70;3.00;;;11.00;99.90;;;;;;5016648;28;20050;-77
2022/05/28 04:52:18;;;;;;;18.00;3.72;;;11.00;99.90;;;;;;5033500;28;20037;-77
2022/05/28 04:54:45;;;;;;;12.45;3.00;;;11.00;99.90;;;;;;5036633;28;20053;-78
2022/05/28 04:57:12;;;;;;;12.68;3.72;;;11.00;99.90;;;;;;5018046;28;20130;-76
2022/05/28 04:59:39;;;;;;;16.95;3.90;;;11.10;99.90;;;;;;5017412;28;20539;-77
2022/05/28 05:02:06;;;;;;;18.40;3.95;;;11.10;99.90;;;;;;5034525;28;20104;-80
2022/05/28 05:04:34;;;;;;;11.32;3.28;;;11.20;99.90;;;;;;5017286;28;20099;-78
2022/05/28 05:07:01;;;;;;;10.98;3.33;;;11.20;99.90;;;;;;4997111;28;20049;-79
2022/05/28 05:09:28;;;;;;;12.80;2.30;;;11.40;99.90;;;;;;5012562;28;20053;-78
2022/05/28 05:11:55;;;;;;;12.43;2.67;;;11.60;99.90;;;;;;5016653;28;20087;-78
2022/05/28 05:14:22;;;;;;;13.00;2.78;;;11.80;99.90;;;;;;5015950;28;20184;-77
2022/05/28 05:16:48;;;;;;;11.35;2.72;;;12.00;99.90;;;;;;5018993;28;20049;-79
2022/05/28 05:19:15;;;;;;;9.07;2.80;;;12.10;99.90;;;;;;5020100;28;20084;-79
2022/05/28 05:21:44;;;;;;;12.43;2.92;;;12.20;99.90;;;;;;5034005;28;20092;-79
2022/05/28 05:24:11;;;;;;;9.25;2.65;;;12.20;99.90;;;;;;5016124;28;20045;-78
2022/05/28 05:26:38;;;;;;;16.05;3.47;;;12.30;99.90;;;;;;5033428;28;20045;-78
2022/05/28 05:29:05;;;;;;;14.10;3.35;;;12.40;99.90;;;;;;5016453;28;20053;-79
2022/05/28 05:31:32;;;;;;;12.68;2.97;;;12.50;99.90;;;;;;5033919;28;20053;-80
2022/05/28 05:33:59;;;;;;;11.65;2.95;;;12.50;99.90;;;;;;5015802;28;20049;-79
2022/05/28 05:36:25;;;;;;;13.13;3.22;;;12.50;99.90;;;;;;5034246;28;20045;-79
2022/05/28 05:38:54;;;;;;;7.93;2.58;;;12.70;99.90;;;;;;5016869;28;20076;-79
2022/05/28 05:41:20;;;;;;;17.75;3.25;;;13.00;99.90;;;;;;5033945;28;20049;-79
2022/05/28 05:43:47;;;;;;;9.75;2.67;;;13.20;99.90;;;;;;5016758;28;20463;-79
2022/05/28 05:46:14;;;;;;;9.35;2.47;;;13.50;99.90;;;;;;5034853;28;20084;-76
2022/05/28 05:48:41;;;;;;;13.73;3.55;;;13.70;99.90;;;;;;5033202;28;20503;-75
2022/05/28 05:51:11;;;;;;;12.77;3.30;;;14.00;99.90;;;;;;5021069;28;20053;-75
2022/05/28 05:53:38;;;;;;;9.88;2.83;;;13.90;99.90;;;;;;5025082;28;20057;-74
2022/05/28 05:56:06;;;;;;;13.80;3.42;;;13.90;99.90;;;;;;5037061;28;20123;-79
2022/05/28 05:58:34;;;;;;;11.65;2.80;;;13.90;99.90;;;;;;5015442;28;20100;-76
2022/05/28 06:01:02;;;;;;;14.15;3.65;;;14.00;99.90;;;;;;5033317;28;20493;-76
2022/05/28 06:03:29;;;;;;;11.35;2.70;;;14.00;99.90;;;;;;5004941;28;20061;-76
2022/05/28 06:05:59;;;;;;;16.30;3.80;;;13.90;99.90;;;;;;5002640;28;20085;-77
2022/05/28 06:08:27;;;;;;;11.32;2.97;;;13.80;99.90;;;;;;5018628;28;20076;-75
2022/05/28 06:10:53;;;;;;;13.20;3.50;;;13.90;99.90;;;;;;5004895;28;20103;-77
2022/05/28 06:13:22;;;;;;;8.85;2.83;;;14.10;99.90;;;;;;5027196;28;20406;-77
2022/05/28 06:15:49;;;;;;;16.05;3.67;;;14.30;99.90;;;;;;5027896;28;20437;-76
2022/05/28 06:18:16;;;;;;;10.40;2.40;;;14.40;99.90;;;;;;5023755;28;20087;-79
2022/05/28 06:20:43;;;;;;;8.90;2.72;;;14.30;99.90;;;;;;5012593;28;20095;-75
2022/05/28 06:23:10;;;;;;;11.55;3.58;;;14.20;99.90;;;;;;5027757;28;20453;-77
2022/05/28 06:25:38;;;;;;;13.77;3.00;;;14.10;99.90;;;;;;5008282;28;20495;-77
2022/05/28 06:28:05;;;;;;;6.57;2.10;;;13.90;99.90;;;;;;5007655;28;20046;-78
2022/05/28 06:30:34;;;;;;;6.90;2.42;;;13.80;99.90;;;;;;5025996;28;20054;-77
2022/05/28 06:33:01;;;;;;;9.52;2.28;;;14.10;99.90;;;;;;5008937;28;20053;-77
2022/05/28 06:35:30;;;;;;;6.90;2.10;;;14.30;99.90;;;;;;5025489;28;20135;-78
2022/05/28 06:37:57;;;;;;;8.07;2.17;;;14.50;99.90;;;;;;5006861;28;20053;-76
2022/05/28 06:40:24;;;;;;;7.28;2.30;;;14.60;99.90;;;;;;5026271;28;20046;-74
2022/05/28 06:42:54;;;;;;;9.45;2.25;;;14.70;99.90;;;;;;5025825;28;20124;-76
2022/05/28 06:45:21;;;;;;;10.60;3.00;;;14.90;99.90;;;;;;5023607;28;20053;-77
2022/05/28 06:47:49;;;;;;;6.72;2.17;;;14.90;99.90;;;;;;5024044;28;20103;-76
2022/05/28 06:53:03;;;;;;;12.82;2.47;;;15.00;99.90;;;;;;5022069;28;20049;-76
2022/05/28 06:55:30;;;;;;;7.97;2.58;;;14.80;99.90;;;;;;5008383;28;20054;-77
2022/05/28 06:57:57;;;;;;;11.05;2.85;;;14.60;99.90;;;;;;5005505;28;20053;-79
2022/05/28 07:00:24;;;;;;;14.95;2.97;;;14.50;99.90;;;;;;5012019;28;20132;-77
2022/05/28 07:02:52;;;;;;;13.65;3.35;;;14.40;99.90;;;;;;5011156;28;20078;-77
2022/05/28 07:05:19;;;;;;;16.27;3.22;;;14.40;99.90;;;;;;5007697;28;20449;-75
2022/05/28 07:07:46;;;;;;;8.13;2.45;;;14.60;99.90;;;;;;5023056;28;20092;-76
2022/05/28 07:10:13;;;;;;;8.25;2.40;;;14.70;99.90;;;;;;5026672;28;20111;-76
2022/05/28 07:12:40;;;;;;;12.57;2.42;;;14.90;99.90;;;;;;5006350;28;20038;-76
2022/05/28 07:15:08;;;;;;;8.40;2.72;;;15.10;99.90;;;;;;5009774;28;20097;-75
2022/05/28 07:17:35;;;;;;;9.38;2.97;;;15.10;99.90;;;;;;5012018;28;20184;-78
2022/05/28 07:20:04;;;;;;;20.65;3.13;;;15.10;99.90;;;;;;5020423;28;20053;-79
2022/05/28 07:22:31;;;;;;;8.70;2.88;;;15.10;99.90;;;;;;5008825;28;20076;-76
2022/05/28 07:24:58;;;;;;;16.70;3.22;;;15.10;99.90;;;;;;5008462;28;20058;-75
2022/05/28 07:27:25;;;;;;;13.20;3.40;;;15.10;99.90;;;;;;5011734;28;20057;-76
2022/05/28 07:29:54;;;;;;;10.55;2.88;;;15.10;99.90;;;;;;5029415;28;20053;-76
2022/05/28 07:32:22;;;;;;;11.77;2.92;;;15.00;99.90;;;;;;5011918;28;20162;-77
2022/05/28 07:34:49;;;;;;;10.43;2.83;;;15.10;99.90;;;;;;5010138;28;20088;-75
2022/05/28 07:37:18;;;;;;;11.10;3.25;;;15.70;99.90;;;;;;5008631;28;20115;-76
2022/05/28 07:39:45;;;;;;;9.55;2.72;;;16.60;99.90;;;;;;5002596;28;20049;-76
2022/05/28 07:42:12;;;;;;;12.40;2.60;;;17.50;99.90;;;;;;5023541;28;20195;-77
2022/05/28 07:44:38;;;;;;;12.68;2.55;;;17.60;99.90;;;;;;5011077;28;20045;-77
2022/05/28 07:47:06;;;;;;;13.13;3.03;;;17.30;99.90;;;;;;5011639;28;20077;-77
2022/05/28 07:49:35;;;;;;;11.15;3.33;;;16.80;99.90;;;;;;5024556;28;20138;-78
2022/05/28 07:52:02;;;;;;;10.40;2.83;;;16.60;99.90;;;;;;5028814;28;20053;-78
2022/05/28 07:54:30;;;;;;;9.77;2.58;;;16.60;99.90;;;;;;4999985;28;20062;-79
2022/05/28 07:56:57;;;;;;;10.48;3.20;;;16.90;99.90;;;;;;5016387;28;20088;-79
2022/05/28 07:59:24;;;;;;;11.85;2.45;;;17.40;99.90;;;;;;5029282;28;20128;-79
2022/05/28 08:01:51;;;;;;;12.23;3.10;;;17.50;99.90;;;;;;5027316;28;20485;-77
2022/05/28 08:04:18;;;;;;;8.18;2.78;;;17.60;99.90;;;;;;5027343;28;20081;-80
2022/05/28 08:06:45;;;;;;;10.18;3.13;;;17.60;99.90;;;;;;5021233;28;20053;-79
2022/05/28 08:09:13;;;;;;;12.00;3.35;;;18.20;99.90;;;;;;5006747;28;20434;-78
2022/05/28 08:11:41;;;;;;;7.88;2.65;;;19.20;99.80;;;;;;5006352;28;20089;-79
2022/05/28 08:14:08;;;;;;;9.13;2.55;;;19.80;97.60;;;;;;5020273;28;20042;-77
2022/05/28 08:16:35;;;;;;;8.73;2.50;;;19.70;97.20;;;;;;5017132;28;20046;-84
2022/05/28 08:19:03;;;;;;;10.60;2.10;;;19.40;96.40;;;;;;5000132;28;20061;-83
2022/05/28 08:24:14;;;;;;;7.32;2.00;;;19.00;95.90;;;;;;5018828;28;20057;-82
2022/05/28 08:26:43;;;;;;;10.93;2.55;;;18.90;96.40;;;;;;5018474;28;20081;-81
2022/05/28 08:29:09;;;;;;;7.78;2.47;;;18.90;96.60;;;;;;5005861;28;20100;-80
2022/05/28 08:31:36;;;;;;;6.93;2.42;;;18.90;96.30;;;;;;5024529;28;20108;-80
2022/05/28 08:34:03;;;;;;;9.70;2.83;;;18.80;95.70;;;;;;5004873;28;20089;-80
2022/05/28 08:36:30;;;;;;;11.40;2.67;;;18.70;95.10;;;;;;5013622;28;20112;-79
2022/05/28 08:38:57;;;;;;;10.77;2.50;;;18.50;95.10;;;;;;5001532;28;20062;-79
2022/05/28 08:41:26;;;;;;;8.63;2.30;;;18.30;95.40;;;;;;4999478;28;20054;-80
2022/05/28 08:44:02;;;;;;;8.10;2.20;;;18.30;95.10;;;;;;5001133;28;20064;-79
2022/05/28 08:46:34;;;;;;;10.05;2.65;;;19.10;94.80;;;;;;5029361;28;20054;-79
2022/05/28 08:49:02;;;;;;;9.90;2.70;;;19.80;93.90;;;;;;5008597;28;20094;-80
2022/05/28 08:51:36;;;;;;;7.18;2.60;;;19.70;93.70;;;;;;5025297;28;20095;-78
2022/05/28 08:54:08;;;;;;;11.63;2.78;;;19.30;92.60;;;;;;5020216;28;20143;-78
2022/05/28 08:56:37;;;;;;;11.30;2.35;;;18.90;93.50;;;;;;5012454;28;20084;-78
2022/05/28 08:59:09;;;;;;;6.65;2.35;;;19.00;94.10;;;;;;5033960;28;20054;-82
2022/05/28 09:01:39;;;;;;;9.88;2.47;;;19.30;93.20;;;;;;5017658;28;20115;-81
2022/05/28 09:04:11;;;;;;;7.90;2.47;;;19.60;93.20;;;;;;5016760;28;20081;-81
2022/05/28 09:06:40;;;;;;;7.32;2.53;;;19.00;93.30;;;;;;5034197;28;20296;-81
2022/05/28 09:09:09;;;;;;;10.63;2.30;;;18.80;93.50;;;;;;5017423;28;20081;-82
2022/05/28 09:11:39;;;;;;;10.13;3.05;;;18.50;93.90;;;;;;5034604;28;20108;-81
2022/05/28 09:14:21;;;;;;;12.73;3.28;;;18.20;94.10;;;;;;5034676;28;20456;-82
2022/05/28 09:16:50;;;;;;;6.90;2.60;;;18.10;94.00;;;;;;5017449;28;20053;-81
2022/05/28 09:19:19;;;;;;;18.88;2.60;;;17.90;94.40;;;;;;5016981;28;20049;-83
2022/05/28 09:21:47;;;;;;;11.07;2.85;;;17.80;94.50;;;;;;5017108;28;20404;-82
2022/05/28 09:24:17;;;;;;;12.13;3.17;;;17.70;94.40;;;;;;5034622;28;20045;-83
2022/05/28 09:26:57;;;;;;;11.38;2.90;;;17.70;94.70;;;;;;5035215;28;20045;-82
2022/05/28 09:29:43;;;;;;;7.30;3.08;;;17.90;94.90;;;;;;5021420;28;20053;-81
2022/05/28 09:32:17;;;;;;;8.07;2.92;;;18.50;94.20;;;;;;5032126;28;20057;-81
2022/05/28 09:34:58;;;;;;;8.50;2.22;;;19.20;94.00;;;;;;5048750;28;20103;-82
2022/05/28 09:37:35;;;;;;;14.40;3.30;;;19.30;92.60;;;;;;5034852;28;20050;-82
2022/05/28 09:40:08;;;;;;;9.88;2.60;;;19.50;92.80;;;;;;5016619;28;20372;-84
2022/05/28 09:42:58;;;;;;;8.25;2.72;;;19.20;92.40;;;;;;5034467;28;20056;-82
2022/05/28 09:45:36;;;;;;;7.35;2.15;;;18.80;92.50;;;;;;5034525;28;20107;-82
2022/05/28 09:48:04;;;;;;;14.02;2.65;;;18.40;91.80;;;;;;5034076;28;20050;-83
2022/05/28 09:50:39;;;;;;;8.82;2.30;;;18.20;92.30;;;;;;5034132;28;20053;-82
2022/05/28 09:55:59;;;;;;;8.23;2.03;;;19.40;92.10;;;;;;5023563;28;20349;-81
2022/05/28 09:58:30;;;;;;;5.45;2.03;;;19.70;92.10;;;;;;5027649;28;20137;-82
2022/05/28 10:01:07;;;;;;;11.07;2.58;;;19.50;90.90;;;;;;5016005;28;20056;-82
2022/05/28 10:06:20;;;;;;;8.82;2.20;;;18.90;91.30;;;;;;5015832;28;20132;-79
2022/05/28 10:08:47;;;;;;;8.75;2.13;;;18.50;92.00;;;;;;5014319;28;20076;-79
2022/05/28 10:11:17;;;;;;;7.53;2.05;;;18.40;92.30;;;;;;5015890;28;20085;-79
2022/05/28 10:13:47;;;;;;;9.68;2.92;;;18.30;93.00;;;;;;5015725;28;20045;-78
2022/05/28 10:16:18;;;;;;;8.05;3.05;;;18.60;92.80;;;;;;5014932;28;20084;-76
2022/05/28 10:18:52;;;;;;;8.30;2.15;;;19.10;92.60;;;;;;5015936;28;20107;-77
2022/05/28 10:21:21;;;;;;;8.20;2.25;;;19.40;92.20;;;;;;5015530;28;20087;-79
2022/05/28 10:23:53;;;;;;;12.98;2.40;;;19.30;91.50;;;;;;5014590;28;20053;-78
2022/05/28 10:26:22;;;;;;;12.38;2.20;;;19.40;90.50;;;;;;5000853;28;20045;-78
2022/05/28 10:28:51;;;;;;;4.18;1.65;;;19.10;90.50;;;;;;5033928;28;20049;-78
2022/05/28 10:31:25;;;;;;;11.60;2.78;;;19.40;90.10;;;;;;5032420;28;20108;-77
2022/05/28 10:33:52;;;;;;;10.77;2.38;;;20.20;89.00;;;;;;5033112;28;20555;-79
2022/05/28 10:36:25;;;;;;;7.50;2.08;;;21.00;89.30;;;;;;5022846;28;20112;-78
2022/05/28 10:38:52;;;;;;;6.00;2.00;;;21.00;87.50;;;;;;5010573;28;20142;-77
2022/05/28 10:41:25;;;;;;;8.40;1.90;;;20.60;86.20;;;;;;5007463;28;20054;-78
2022/05/28 10:43:52;;;;;;;9.85;2.55;;;20.60;85.60;;;;;;5025216;28;20058;-78
2022/05/28 10:46:28;;;;;;;6.55;1.50;;;21.30;86.00;;;;;;5011691;28;20123;-77
2022/05/28 10:49:13;;;;;;;7.75;1.83;;;21.20;82.50;;;;;;4999007;28;20410;-77
2022/05/28 10:51:53;;;;;;;7.10;2.13;;;21.10;82.20;;;;;;5003939;28;20104;-79
2022/05/28 10:54:30;;;;;;;9.35;2.03;;;21.00;84.30;;;;;;5014653;28;20046;-78
2022/05/28 10:57:04;;;;;;;5.53;1.92;;;20.70;84.00;;;;;;5013294;28;20053;-77
2022/05/28 10:59:53;;;;;;;10.20;1.98;;;20.50;83.00;;;;;;5018611;28;20081;-77
2022/05/28 11:02:38;;;;;;;6.22;2.13;;;20.40;82.90;;;;;;5009116;28;20192;-78
2022/05/28 11:05:16;;;;;;;8.30;2.10;;;21.00;83.70;;;;;;5012053;28;20472;-77
2022/05/28 11:07:59;;;;;;;6.90;1.60;;;21.80;81.70;;;;;;5011064;28;20093;-78
2022/05/28 11:10:38;;;;;;;7.40;2.03;;;22.50;81.70;;;;;;5001146;28;20054;-78
2022/05/28 11:13:17;;;;;;;7.25;2.20;;;23.10;79.50;;;;;;5024419;28;20088;-77
2022/05/28 11:16:04;;;;;;;5.65;1.83;;;23.60;75.50;;;;;;5007190;28;20046;-78
2022/05/28 11:18:48;;;;;;;8.73;2.38;;;24.00;73.80;;;;;;5034777;28;20403;-77
2022/05/28 11:21:31;;;;;;;6.90;1.92;;;24.30;74.40;;;;;;5018323;28;20053;-78
2022/05/28 11:24:23;;;;;;;7.60;2.10;;;23.60;70.60;;;;;;5032091;28;20049;-77
2022/05/28 11:26:58;;;;;;;7.32;2.05;;;23.20;73.70;;;;;;5015513;28;20152;-77
2022/05/28 11:29:38;;;;;;;7.72;2.42;;;23.40;74.00;;;;;;5016749;28;20444;-78
2022/05/28 11:32:12;;;;;;;8.50;2.15;;;23.40;71.40;;;;;;4998032;28;20144;-79
2022/05/28 11:34:44;;;;;;;6.18;1.88;;;23.30;74.00;;;;;;5000821;28;20058;-79
2022/05/28 11:37:16;;;;;;;6.72;2.17;;;22.30;74.60;;;;;;5009799;28;20077;-78
2022/05/28 11:39:49;;;;;;;6.43;1.92;;;21.70;76.20;;;;;;5014982;28;20053;-82
2022/05/28 11:42:29;;;;;;;8.07;2.80;;;21.10;78.50;;;;;;4999646;28;20081;-82
2022/05/28 11:44:57;;;;;;;8.05;2.08;;;20.30;82.10;;;;;;5000199;28;20560;-80
2022/05/28 11:47:45;;;;;;;7.90;2.30;;;19.50;86.40;;;;;;5016116;28;20062;-80
2022/05/28 11:53:15;;;;;;;10.07;2.75;;;18.90;92.00;;;;;;5016285;28;20052;-85
2022/05/28 11:55:44;;;;;;;11.23;3.38;;;18.70;90.70;;;;;;5016851;28;20056;-85
2022/05/28 11:58:16;;;;;;;9.23;2.72;;;19.00;90.70;;;;;;5000466;28;20054;-82
2022/05/28 12:00:49;;;;;;;12.98;3.03;;;19.20;89.70;;;;;;5006584;28;20061;-82
2022/05/28 12:03:18;;;;;;;8.85;2.35;;;19.80;88.00;;;;;;5006686;28;20042;-84
2022/05/28 12:05:50;;;;;;;9.80;2.73;;;20.30;87.00;;;;;;5025364;28;20096;-84
2022/05/28 12:08:29;;;;;;;5.68;2.05;;;20.90;83.80;;;;;;5008577;28;20292;-82
2022/05/28 12:10:59;;;;;;;11.13;2.33;;;21.90;80.60;;;;;;5026116;28;20049;-84
2022/05/28 12:13:31;;;;;;;7.50;2.03;;;22.10;78.80;;;;;;5003415;28;20100;-82
2022/05/28 12:16:09;;;;;;;7.65;2.35;;;21.90;77.70;;;;;;5015674;28;20108;-82
2022/05/28 12:18:38;;;;;;;9.05;2.00;;;22.10;76.50;;;;;;4999202;28;20050;-82
2022/05/28 12:21:06;;;;;;;6.93;1.70;;;22.60;77.00;;;;;;4999144;28;20058;-82
2022/05/28 12:23:35;;;;;;;9.85;2.20;;;22.30;74.90;;;;;;5015216;28;20108;-81
2022/05/28 12:26:15;;;;;;;5.70;2.30;;;22.40;74.10;;;;;;4999116;28;20054;-82
2022/05/28 12:28:49;;;;;;;8.70;2.63;;;23.00;75.70;;;;;;4998514;28;20193;-81
2022/05/28 12:31:27;;;;;;;9.32;2.72;;;22.80;75.70;;;;;;4995189;28;20517;-82
2022/05/28 12:33:56;;;;;;;9.10;2.20;;;22.30;73.50;;;;;;4995103;28;20046;-81
2022/05/28 12:36:33;;;;;;;9.38;2.75;;;22.20;74.60;;;;;;4994747;28;20049;-83
2022/05/28 12:39:05;;;;;;;6.93;2.28;;;22.60;74.50;;;;;;4995308;28;20090;-81
2022/05/28 12:41:35;;;;;;;10.35;2.50;;;22.80;74.80;;;;;;4995550;28;20055;-82
2022/05/28 12:44:11;;;;;;;7.25;2.08;;;23.40;73.80;;;;;;4995304;28;20514;-82
2022/05/28 12:46:45;;;;;;;6.13;1.85;;;23.80;72.10;;;;;;4996530;28;20101;-80
2022/05/28 12:49:20;;;;;;;5.18;1.55;;;23.70;68.70;;;;;;4995512;28;20054;-82
2022/05/28 12:52:07;;;;;;;5.93;2.00;;;23.80;70.40;;;;;;4994340;28;20062;-82
2022/05/28 12:54:37;;;;;;;8.18;2.10;;;23.40;70.70;;;;;;4994758;28;20506;-82
2022/05/28 12:57:07;;;;;;;4.47;1.58;;;23.70;71.40;;;;;;4995627;28;20089;-82
2022/05/28 12:59:36;;;;;;;8.80;2.25;;;24.10;71.10;;;;;;4995476;28;20528;-83
2022/05/28 13:02:08;;;;;;;4.63;1.50;;;24.10;70.80;;;;;;5013858;28;20057;-82
2022/05/28 13:04:41;;;;;;;6.15;1.70;;;24.50;69.60;;;;;;5003142;28;20050;-83
2022/05/28 13:07:22;;;;;;;8.32;2.38;;;24.70;68.70;;;;;;4994977;28;20050;-82
2022/05/28 13:09:51;;;;;;;9.40;2.72;;;24.20;66.60;;;;;;4997151;28;20483;-81
2022/05/28 13:12:24;;;;;;;5.55;2.08;;;23.90;69.00;;;;;;5011496;28;20054;-81